sensor_id;sensor_type;location;lat;lon;timestamp;P1;durP1;ratioP1;P2;durP2;ratioP2
22144;SDS011;11238;48.730;11.566;2023-05-10T00:00:27;16.77;;;12.70;;
22144;SDS011;11238;48.730;11.566;2023-05-10T00:02:53;16.60;;;12.05;;
22144;SDS011;11238;48.730;11.566;2023-05-10T00:05:19;15.52;;;12.15;;
22144;SDS011;11238;48.730;11.566;2023-05-10T00:07:45;16.25;;;11.60;;
22144;SDS011;11238;48.730;11.566;2023-05-10T00:10:11;16.10;;;12.38;;
22144;SDS011;11238;48.730;11.566;2023-05-10T00:12:36;13.25;;;11.23;;
22144;SDS011;11238;48.730;11.566;2023-05-10T00:15:03;14.23;;;10.45;;
22144;SDS011;11238;48.730;11.566;2023-05-10T00:17:31;15.60;;;10.40;;
22144;SDS011;11238;48.730;11.566;2023-05-10T00:19:57;15.88;;;10.60;;
22144;SDS011;11238;48.730;11.566;2023-05-10T00:22:23;11.85;;;10.23;;
22144;SDS011;11238;48.730;11.566;2023-05-10T00:24:49;10.05;;;8.90;;
22144;SDS011;11238;48.730;11.566;2023-05-10T00:27:15;10.32;;;7.78;;
22144;SDS011;11238;48.730;11.566;2023-05-10T00:29:41;7.03;;;6.32;;
22144;SDS011;11238;48.730;11.566;2023-05-10T00:32:07;6.10;;;5.10;;
22144;SDS011;11238;48.730;11.566;2023-05-10T00:34:33;8.00;;;5.10;;
22144;SDS011;11238;48.730;11.566;2023-05-10T00:36:59;3.78;;;3.35;;
22144;SDS011;11238;48.730;11.566;2023-05-10T00:39:25;4.95;;;3.85;;
22144;SDS011;11238;48.730;11.566;2023-05-10T00:41:54;3.72;;;2.80;;
22144;SDS011;11238;48.730;11.566;2023-05-10T00:44:20;2.70;;;2.42;;
22144;SDS011;11238;48.730;11.566;2023-05-10T00:46:46;2.65;;;2.20;;
22144;SDS011;11238;48.730;11.566;2023-05-10T00:49:14;6.88;;;2.45;;
22144;SDS011;11238;48.730;11.566;2023-05-10T00:51:41;2.33;;;2.00;;
22144;SDS011;11238;48.730;11.566;2023-05-10T00:54:08;3.38;;;2.22;;
22144;SDS011;11238;48.730;11.566;2023-05-10T00:56:36;5.82;;;2.35;;
22144;SDS011;11238;48.730;11.566;2023-05-10T00:59:03;2.78;;;2.13;;
22144;SDS011;11238;48.730;11.566;2023-05-10T01:01:28;2.80;;;2.00;;
22144;SDS011;11238;48.730;11.566;2023-05-10T01:03:55;2.50;;;2.08;;
22144;SDS011;11238;48.730;11.566;2023-05-10T01:06:22;5.68;;;2.10;;
22144;SDS011;11238;48.730;11.566;2023-05-10T01:08:48;3.25;;;2.13;;
22144;SDS011;11238;48.730;11.566;2023-05-10T01:11:14;7.53;;;2.20;;
22144;SDS011;11238;48.730;11.566;2023-05-10T01:13:41;2.75;;;1.92;;
22144;SDS011;11238;48.730;11.566;2023-05-10T01:16:08;5.45;;;2.70;;
22144;SDS011;11238;48.730;11.566;2023-05-10T01:18:40;2.63;;;2.38;;
22144;SDS011;11238;48.730;11.566;2023-05-10T01:33:08;2.50;;;2.30;;
22144;SDS011;11238;48.730;11.566;2023-05-10T01:35:55;3.55;;;2.08;;
22144;SDS011;11238;48.730;11.566;2023-05-10T01:38:41;4.90;;;2.30;;
22144;SDS011;11238;48.730;11.566;2023-05-10T01:41:29;3.92;;;2.30;;
22144;SDS011;11238;48.730;11.566;2023-05-10T01:44:04;2.17;;;1.90;;
22144;SDS011;11238;48.730;11.566;2023-05-10T01:46:44;2.08;;;1.73;;
22144;SDS011;11238;48.730;11.566;2023-05-10T01:49:23;2.63;;;1.98;;
22144;SDS011;11238;48.730;11.566;2023-05-10T01:51:52;2.35;;;2.15;;
22144;SDS011;11238;48.730;11.566;2023-05-10T01:54:24;3.60;;;2.10;;
22144;SDS011;11238;48.730;11.566;2023-05-10T01:56:52;2.50;;;2.30;;
22144;SDS011;11238;48.730;11.566;2023-05-10T01:59:22;2.90;;;2.38;;
22144;SDS011;11238;48.730;11.566;2023-05-10T02:01:55;3.38;;;2.13;;
22144;SDS011;11238;48.730;11.566;2023-05-10T02:04:23;2.35;;;2.15;;
22144;SDS011;11238;48.730;11.566;2023-05-10T02:06:51;3.38;;;2.13;;
22144;SDS011;11238;48.730;11.566;2023-05-10T02:09:20;3.05;;;2.25;;
22144;SDS011;11238;48.730;11.566;2023-05-10T02:11:49;2.20;;;2.00;;
22144;SDS011;11238;48.730;11.566;2023-05-10T02:14:15;2.60;;;2.20;;
22144;SDS011;11238;48.730;11.566;2023-05-10T02:16:42;2.53;;;2.03;;
22144;SDS011;11238;48.730;11.566;2023-05-10T02:19:10;3.42;;;2.53;;
22144;SDS011;11238;48.730;11.566;2023-05-10T02:21:39;4.22;;;2.42;;
22144;SDS011;11238;48.730;11.566;2023-05-10T02:24:05;3.40;;;2.28;;
22144;SDS011;11238;48.730;11.566;2023-05-10T02:26:32;5.53;;;2.40;;
22144;SDS011;11238;48.730;11.566;2023-05-10T02:29:01;3.08;;;2.38;;
22144;SDS011;11238;48.730;11.566;2023-05-10T02:31:30;2.65;;;2.05;;
22144;SDS011;11238;48.730;11.566;2023-05-10T02:33:57;4.75;;;2.10;;
22144;SDS011;11238;48.730;11.566;2023-05-10T02:36:26;2.30;;;2.10;;
22144;SDS011;11238;48.730;11.566;2023-05-10T02:38:52;3.42;;;2.70;;
22144;SDS011;11238;48.730;11.566;2023-05-10T02:41:19;3.95;;;2.38;;
22144;SDS011;11238;48.730;11.566;2023-05-10T02:43:49;2.47;;;2.28;;
22144;SDS011;11238;48.730;11.566;2023-05-10T02:46:19;4.53;;;2.35;;
22144;SDS011;11238;48.730;11.566;2023-05-10T02:48:44;2.95;;;2.15;;
22144;SDS011;11238;48.730;11.566;2023-05-10T02:51:11;3.72;;;2.35;;
22144;SDS011;11238;48.730;11.566;2023-05-10T02:53:40;2.90;;;2.70;;
22144;SDS011;11238;48.730;11.566;2023-05-10T02:56:15;2.88;;;2.45;;
22144;SDS011;11238;48.730;11.566;2023-05-10T02:58:50;2.35;;;2.15;;
22144;SDS011;11238;48.730;11.566;2023-05-10T03:01:17;5.80;;;2.55;;
22144;SDS011;11238;48.730;11.566;2023-05-10T03:03:43;4.40;;;2.40;;
22144;SDS011;11238;48.730;11.566;2023-05-10T03:06:09;2.35;;;2.15;;
22144;SDS011;11238;48.730;11.566;2023-05-10T03:08:34;3.15;;;2.45;;
22144;SDS011;11238;48.730;11.566;2023-05-10T03:11:06;2.83;;;2.50;;
22144;SDS011;11238;48.730;11.566;2023-05-10T03:14:29;3.80;;;2.58;;
22144;SDS011;11238;48.730;11.566;2023-05-10T03:16:34;2.83;;;2.30;;
22144;SDS011;11238;48.730;11.566;2023-05-10T03:22:04;4.60;;;2.05;;
22144;SDS011;11238;48.730;11.566;2023-05-10T03:24:36;2.45;;;1.90;;
22144;SDS011;11238;48.730;11.566;2023-05-10T03:27:07;2.40;;;2.20;;
22144;SDS011;11238;48.730;11.566;2023-05-10T03:29:33;2.88;;;2.20;;
22144;SDS011;11238;48.730;11.566;2023-05-10T03:32:01;5.90;;;2.03;;
22144;SDS011;11238;48.730;11.566;2023-05-10T03:34:29;2.60;;;2.30;;
22144;SDS011;11238;48.730;11.566;2023-05-10T03:36:56;2.13;;;1.92;;
22144;SDS011;11238;48.730;11.566;2023-05-10T03:39:24;3.05;;;2.00;;
22144;SDS011;11238;48.730;11.566;2023-05-10T03:41:54;3.95;;;1.90;;
22144;SDS011;11238;48.730;11.566;2023-05-10T03:44:20;2.85;;;1.90;;
22144;SDS011;11238;48.730;11.566;2023-05-10T03:46:46;1.92;;;1.73;;
22144;SDS011;11238;48.730;11.566;2023-05-10T03:49:12;1.77;;;1.55;;
22144;SDS011;11238;48.730;11.566;2023-05-10T03:51:39;2.53;;;1.73;;
22144;SDS011;11238;48.730;11.566;2023-05-10T03:54:05;1.80;;;1.70;;
22144;SDS011;11238;48.730;11.566;2023-05-10T03:56:31;4.35;;;2.08;;
22144;SDS011;11238;48.730;11.566;2023-05-10T03:58:59;2.38;;;1.88;;
22144;SDS011;11238;48.730;11.566;2023-05-10T04:01:24;2.28;;;2.08;;
22144;SDS011;11238;48.730;11.566;2023-05-10T04:03:50;4.68;;;2.05;;
22144;SDS011;11238;48.730;11.566;2023-05-10T04:06:16;2.25;;;2.05;;
22144;SDS011;11238;48.730;11.566;2023-05-10T04:08:42;4.75;;;2.30;;
22144;SDS011;11238;48.730;11.566;2023-05-10T04:11:08;8.13;;;2.33;;
22144;SDS011;11238;48.730;11.566;2023-05-10T04:13:36;6.75;;;2.70;;
22144;SDS011;11238;48.730;11.566;2023-05-10T04:16:03;4.45;;;2.22;;
22144;SDS011;11238;48.730;11.566;2023-05-10T04:18:29;2.72;;;2.50;;
22144;SDS011;11238;48.730;11.566;2023-05-10T04:20:56;3.90;;;2.42;;
22144;SDS011;11238;48.730;11.566;2023-05-10T04:23:22;2.83;;;2.35;;
22144;SDS011;11238;48.730;11.566;2023-05-10T04:25:48;2.90;;;2.60;;
22144;SDS011;11238;48.730;11.566;2023-05-10T04:28:13;3.20;;;2.63;;
22144;SDS011;11238;48.730;11.566;2023-05-10T04:30:39;3.10;;;2.30;;
22144;SDS011;11238;48.730;11.566;2023-05-10T04:33:05;2.20;;;2.00;;
22144;SDS011;11238;48.730;11.566;2023-05-10T04:35:31;3.92;;;2.03;;
22144;SDS011;11238;48.730;11.566;2023-05-10T04:37:57;2.72;;;2.10;;
22144;SDS011;11238;48.730;11.566;2023-05-10T04:40:25;3.20;;;1.73;;
22144;SDS011;11238;48.730;11.566;2023-05-10T04:42:51;1.30;;;1.20;;
22144;SDS011;11238;48.730;11.566;2023-05-10T04:45:17;1.73;;;1.30;;
22144;SDS011;11238;48.730;11.566;2023-05-10T04:47:43;1.30;;;1.20;;
22144;SDS011;11238;48.730;11.566;2023-05-10T04:50:11;1.77;;;1.10;;
22144;SDS011;11238;48.730;11.566;2023-05-10T04:52:37;1.00;;;0.90;;
22144;SDS011;11238;48.730;11.566;2023-05-10T04:55:03;0.70;;;0.70;;
22144;SDS011;11238;48.730;11.566;2023-05-10T04:57:29;2.40;;;0.80;;
22144;SDS011;11238;48.730;11.566;2023-05-10T04:59:55;1.17;;;0.80;;
22144;SDS011;11238;48.730;11.566;2023-05-10T05:02:21;3.30;;;0.80;;
22144;SDS011;11238;48.730;11.566;2023-05-10T05:04:47;0.60;;;0.60;;
22144;SDS011;11238;48.730;11.566;2023-05-10T05:07:13;1.67;;;0.70;;
22144;SDS011;11238;48.730;11.566;2023-05-10T05:09:39;9.35;;;0.90;;
22144;SDS011;11238;48.730;11.566;2023-05-10T05:12:05;7.82;;;0.73;;
22144;SDS011;11238;48.730;11.566;2023-05-10T05:14:31;0.80;;;0.70;;
22144;SDS011;11238;48.730;11.566;2023-05-10T05:16:57;2.75;;;0.55;;
22144;SDS011;11238;48.730;11.566;2023-05-10T05:19:23;0.90;;;0.52;;
22144;SDS011;11238;48.730;11.566;2023-05-10T05:21:49;0.93;;;0.70;;
22144;SDS011;11238;48.730;11.566;2023-05-10T05:24:15;2.25;;;0.63;;
22144;SDS011;11238;48.730;11.566;2023-05-10T05:26:41;0.60;;;0.60;;
22144;SDS011;11238;48.730;11.566;2023-05-10T05:29:07;0.80;;;0.80;;
22144;SDS011;11238;48.730;11.566;2023-05-10T05:31:33;2.92;;;0.70;;
22144;SDS011;11238;48.730;11.566;2023-05-10T05:33:59;0.90;;;0.70;;
22144;SDS011;11238;48.730;11.566;2023-05-10T05:36:25;1.15;;;0.65;;
22144;SDS011;11238;48.730;11.566;2023-05-10T05:38:51;0.60;;;0.60;;
22144;SDS011;11238;48.730;11.566;2023-05-10T05:41:18;1.63;;;0.70;;
22144;SDS011;11238;48.730;11.566;2023-05-10T05:43:44;0.80;;;0.80;;
22144;SDS011;11238;48.730;11.566;2023-05-10T05:46:10;0.80;;;0.80;;
22144;SDS011;11238;48.730;11.566;2023-05-10T05:48:35;1.00;;;0.82;;
22144;SDS011;11238;48.730;11.566;2023-05-10T05:51:01;1.27;;;0.98;;
22144;SDS011;11238;48.730;11.566;2023-05-10T05:53:28;2.58;;;1.05;;
22144;SDS011;11238;48.730;11.566;2023-05-10T05:55:55;1.10;;;1.00;;
22144;SDS011;11238;48.730;11.566;2023-05-10T05:58:23;2.17;;;1.10;;
22144;SDS011;11238;48.730;11.566;2023-05-10T06:00:53;1.65;;;1.27;;
22144;SDS011;11238;48.730;11.566;2023-05-10T06:03:18;1.20;;;1.10;;
22144;SDS011;11238;48.730;11.566;2023-05-10T06:05:44;1.38;;;1.05;;
22144;SDS011;11238;48.730;11.566;2023-05-10T06:08:10;1.10;;;1.10;;
22144;SDS011;11238;48.730;11.566;2023-05-10T06:10:36;2.78;;;1.02;;
22144;SDS011;11238;48.730;11.566;2023-05-10T06:13:06;1.20;;;1.10;;
22144;SDS011;11238;48.730;11.566;2023-05-10T06:15:32;1.17;;;1.17;;
22144;SDS011;11238;48.730;11.566;2023-05-10T06:17:58;1.40;;;1.20;;
22144;SDS011;11238;48.730;11.566;2023-05-10T06:20:24;1.20;;;1.10;;
22144;SDS011;11238;48.730;11.566;2023-05-10T06:22:50;1.70;;;1.20;;
22144;SDS011;11238;48.730;11.566;2023-05-10T06:25:17;1.30;;;1.20;;
22144;SDS011;11238;48.730;11.566;2023-05-10T06:27:43;1.42;;;1.30;;
22144;SDS011;11238;48.730;11.566;2023-05-10T06:30:11;1.95;;;1.30;;
22144;SDS011;11238;48.730;11.566;2023-05-10T06:32:45;1.30;;;1.20;;
22144;SDS011;11238;48.730;11.566;2023-05-10T06:35:23;1.40;;;1.20;;
22144;SDS011;11238;48.730;11.566;2023-05-10T06:38:09;1.27;;;1.10;;
22144;SDS011;11238;48.730;11.566;2023-05-10T06:40:36;1.60;;;1.50;;
22144;SDS011;11238;48.730;11.566;2023-05-10T06:43:05;1.88;;;1.45;;
22144;SDS011;11238;48.730;11.566;2023-05-10T06:45:53;1.40;;;1.30;;
22144;SDS011;11238;48.730;11.566;2023-05-10T06:48:19;1.45;;;1.30;;
22144;SDS011;11238;48.730;11.566;2023-05-10T06:50:45;1.48;;;1.38;;
22144;SDS011;11238;48.730;11.566;2023-05-10T06:53:12;1.60;;;1.50;;
22144;SDS011;11238;48.730;11.566;2023-05-10T06:55:39;1.30;;;1.20;;
22144;SDS011;11238;48.730;11.566;2023-05-10T06:58:04;1.30;;;1.20;;
22144;SDS011;11238;48.730;11.566;2023-05-10T07:00:34;1.42;;;1.33;;
22144;SDS011;11238;48.730;11.566;2023-05-10T07:02:59;1.30;;;1.20;;
22144;SDS011;11238;48.730;11.566;2023-05-10T07:05:25;2.50;;;1.20;;
22144;SDS011;11238;48.730;11.566;2023-05-10T07:07:53;1.33;;;1.20;;
22144;SDS011;11238;48.730;11.566;2023-05-10T07:10:22;2.00;;;1.23;;
22144;SDS011;11238;48.730;11.566;2023-05-10T07:12:54;4.07;;;1.20;;
22144;SDS011;11238;48.730;11.566;2023-05-10T07:15:20;6.05;;;1.40;;
22144;SDS011;11238;48.730;11.566;2023-05-10T07:17:46;4.15;;;1.40;;
22144;SDS011;11238;48.730;11.566;2023-05-10T07:20:18;2.63;;;1.30;;
22144;SDS011;11238;48.730;11.566;2023-05-10T07:22:43;7.15;;;1.77;;
22144;SDS011;11238;48.730;11.566;2023-05-10T07:25:12;5.93;;;1.70;;
22144;SDS011;11238;48.730;11.566;2023-05-10T07:27:38;3.78;;;1.42;;
22144;SDS011;11238;48.730;11.566;2023-05-10T07:30:11;3.60;;;1.25;;
22144;SDS011;11238;48.730;11.566;2023-05-10T07:32:38;2.25;;;1.30;;
22144;SDS011;11238;48.730;11.566;2023-05-10T07:35:05;2.20;;;1.20;;
22144;SDS011;11238;48.730;11.566;2023-05-10T07:37:32;3.20;;;1.20;;
22144;SDS011;11238;48.730;11.566;2023-05-10T07:40:01;1.20;;;1.10;;
22144;SDS011;11238;48.730;11.566;2023-05-10T07:42:28;1.80;;;1.25;;
22144;SDS011;11238;48.730;11.566;2023-05-10T07:44:54;3.28;;;1.02;;
22144;SDS011;11238;48.730;11.566;2023-05-10T07:47:22;1.90;;;1.20;;
22144;SDS011;11238;48.730;11.566;2023-05-10T07:49:49;1.70;;;1.25;;
22144;SDS011;11238;48.730;11.566;2023-05-10T07:52:14;2.47;;;1.45;;
22144;SDS011;11238;48.730;11.566;2023-05-10T07:54:41;1.30;;;1.20;;
22144;SDS011;11238;48.730;11.566;2023-05-10T07:57:07;1.40;;;1.30;;
22144;SDS011;11238;48.730;11.566;2023-05-10T07:59:33;5.53;;;1.30;;
22144;SDS011;11238;48.730;11.566;2023-05-10T08:01:59;3.15;;;1.17;;
22144;SDS011;11238;48.730;11.566;2023-05-10T08:04:26;5.75;;;1.20;;
22144;SDS011;11238;48.730;11.566;2023-05-10T08:06:52;2.08;;;1.38;;
22144;SDS011;11238;48.730;11.566;2023-05-10T08:09:18;3.30;;;1.45;;
22144;SDS011;11238;48.730;11.566;2023-05-10T08:11:49;3.25;;;1.60;;
22144;SDS011;11238;48.730;11.566;2023-05-10T08:14:16;4.18;;;2.00;;
22144;SDS011;11238;48.730;11.566;2023-05-10T08:16:41;4.90;;;2.60;;
22144;SDS011;11238;48.730;11.566;2023-05-10T08:19:08;7.25;;;2.10;;
22144;SDS011;11238;48.730;11.566;2023-05-10T08:21:35;2.20;;;1.40;;
22144;SDS011;11238;48.730;11.566;2023-05-10T08:24:01;1.58;;;1.48;;
22144;SDS011;11238;48.730;11.566;2023-05-10T08:26:27;2.05;;;1.40;;
22144;SDS011;11238;48.730;11.566;2023-05-10T08:28:53;1.73;;;1.35;;
22144;SDS011;11238;48.730;11.566;2023-05-10T08:31:19;1.40;;;1.30;;
22144;SDS011;11238;48.730;11.566;2023-05-10T08:33:45;1.73;;;1.23;;
22144;SDS011;11238;48.730;11.566;2023-05-10T08:36:11;2.13;;;1.50;;
22144;SDS011;11238;48.730;11.566;2023-05-10T08:38:39;1.50;;;1.40;;
22144;SDS011;11238;48.730;11.566;2023-05-10T08:41:05;1.60;;;1.50;;
22144;SDS011;11238;48.730;11.566;2023-05-10T08:43:32;2.75;;;1.52;;
22144;SDS011;11238;48.730;11.566;2023-05-10T08:46:01;1.83;;;1.30;;
22144;SDS011;11238;48.730;11.566;2023-05-10T08:48:29;1.40;;;1.30;;
22144;SDS011;11238;48.730;11.566;2023-05-10T08:50:59;5.07;;;1.20;;
22144;SDS011;11238;48.730;11.566;2023-05-10T08:53:27;2.70;;;1.30;;
22144;SDS011;11238;48.730;11.566;2023-05-10T08:55:55;1.92;;;1.30;;
22144;SDS011;11238;48.730;11.566;2023-05-10T08:58:22;1.33;;;1.05;;
22144;SDS011;11238;48.730;11.566;2023-05-10T09:00:48;2.88;;;1.02;;
22144;SDS011;11238;48.730;11.566;2023-05-10T09:03:17;3.42;;;1.05;;
22144;SDS011;11238;48.730;11.566;2023-05-10T09:05:45;1.45;;;1.20;;
22144;SDS011;11238;48.730;11.566;2023-05-10T09:08:11;1.70;;;1.27;;
22144;SDS011;11238;48.730;11.566;2023-05-10T09:10:39;1.58;;;1.35;;
22144;SDS011;11238;48.730;11.566;2023-05-10T09:13:12;4.22;;;1.48;;
22144;SDS011;11238;48.730;11.566;2023-05-10T09:15:40;3.22;;;1.40;;
22144;SDS011;11238;48.730;11.566;2023-05-10T09:18:07;3.22;;;1.38;;
22144;SDS011;11238;48.730;11.566;2023-05-10T09:20:33;4.22;;;1.63;;
22144;SDS011;11238;48.730;11.566;2023-05-10T09:22:59;4.28;;;1.80;;
22144;SDS011;11238;48.730;11.566;2023-05-10T09:25:25;2.55;;;1.52;;
22144;SDS011;11238;48.730;11.566;2023-05-10T09:27:51;1.90;;;1.40;;
22144;SDS011;11238;48.730;11.566;2023-05-10T09:30:25;4.45;;;1.75;;
22144;SDS011;11238;48.730;11.566;2023-05-10T09:32:56;5.00;;;1.60;;
22144;SDS011;11238;48.730;11.566;2023-05-10T09:35:25;3.78;;;2.10;;
22144;SDS011;11238;48.730;11.566;2023-05-10T09:37:53;2.90;;;1.88;;
22144;SDS011;11238;48.730;11.566;2023-05-10T09:40:21;2.45;;;1.60;;
22144;SDS011;11238;48.730;11.566;2023-05-10T09:42:58;1.60;;;1.50;;
22144;SDS011;11238;48.730;11.566;2023-05-10T09:45:27;3.53;;;1.60;;
22144;SDS011;11238;48.730;11.566;2023-05-10T09:47:58;2.60;;;1.30;;
22144;SDS011;11238;48.730;11.566;2023-05-10T09:50:25;3.42;;;1.33;;
22144;SDS011;11238;48.730;11.566;2023-05-10T09:52:53;1.88;;;1.20;;
22144;SDS011;11238;48.730;11.566;2023-05-10T09:55:21;1.60;;;1.20;;
22144;SDS011;11238;48.730;11.566;2023-05-10T09:57:49;2.03;;;1.10;;
22144;SDS011;11238;48.730;11.566;2023-05-10T10:00:25;2.08;;;1.10;;
22144;SDS011;11238;48.730;11.566;2023-05-10T10:02:57;2.60;;;1.00;;
22144;SDS011;11238;48.730;11.566;2023-05-10T10:05:28;1.95;;;0.80;;
22144;SDS011;11238;48.730;11.566;2023-05-10T10:07:56;1.77;;;1.00;;
22144;SDS011;11238;48.730;11.566;2023-05-10T10:10:23;1.60;;;0.88;;
22144;SDS011;11238;48.730;11.566;2023-05-10T10:12:52;4.68;;;1.30;;
22144;SDS011;11238;48.730;11.566;2023-05-10T10:15:21;1.17;;;1.08;;
22144;SDS011;11238;48.730;11.566;2023-05-10T10:17:48;2.95;;;1.02;;
22144;SDS011;11238;48.730;11.566;2023-05-10T10:20:14;1.05;;;0.95;;
22144;SDS011;11238;48.730;11.566;2023-05-10T10:22:41;2.33;;;0.98;;
22144;SDS011;11238;48.730;11.566;2023-05-10T10:25:10;1.60;;;1.10;;
22144;SDS011;11238;48.730;11.566;2023-05-10T10:27:41;2.92;;;1.08;;
22144;SDS011;11238;48.730;11.566;2023-05-10T10:30:31;2.55;;;1.20;;
22144;SDS011;11238;48.730;11.566;2023-05-10T10:35:58;2.00;;;1.17;;
22144;SDS011;11238;48.730;11.566;2023-05-10T10:38:25;2.05;;;1.10;;
22144;SDS011;11238;48.730;11.566;2023-05-10T10:41:34;1.30;;;1.02;;
22144;SDS011;11238;48.730;11.566;2023-05-10T10:52:28;1.35;;;0.95;;
22144;SDS011;11238;48.730;11.566;2023-05-10T11:08:27;4.25;;;0.90;;
22144;SDS011;11238;48.730;11.566;2023-05-10T11:13:34;1.33;;;0.95;;
22144;SDS011;11238;48.730;11.566;2023-05-10T11:16:16;2.42;;;0.85;;
22144;SDS011;11238;48.730;11.566;2023-05-10T11:21:28;2.50;;;1.45;;
22144;SDS011;11238;48.730;11.566;2023-05-10T11:23:58;4.70;;;1.75;;
22144;SDS011;11238;48.730;11.566;2023-05-10T11:26:25;1.58;;;1.27;;
22144;SDS011;11238;48.730;11.566;2023-05-10T11:28:56;2.78;;;1.40;;
22144;SDS011;11238;48.730;11.566;2023-05-10T11:31:24;1.77;;;1.30;;
22144;SDS011;11238;48.730;11.566;2023-05-10T11:33:52;1.23;;;1.13;;
22144;SDS011;11238;48.730;11.566;2023-05-10T11:36:21;2.13;;;1.25;;
22144;SDS011;11238;48.730;11.566;2023-05-10T11:38:50;1.65;;;1.10;;
22144;SDS011;11238;48.730;11.566;2023-05-10T11:41:17;2.78;;;1.20;;
22144;SDS011;11238;48.730;11.566;2023-05-10T11:43:44;2.00;;;1.20;;
22144;SDS011;11238;48.730;11.566;2023-05-10T11:46:12;3.83;;;0.90;;
22144;SDS011;11238;48.730;11.566;2023-05-10T11:48:39;3.22;;;1.30;;
22144;SDS011;11238;48.730;11.566;2023-05-10T11:51:08;1.77;;;1.00;;
22144;SDS011;11238;48.730;11.566;2023-05-10T11:53:36;4.55;;;1.20;;
22144;SDS011;11238;48.730;11.566;2023-05-10T11:56:04;2.55;;;1.30;;
22144;SDS011;11238;48.730;11.566;2023-05-10T11:58:31;3.10;;;1.17;;
22144;SDS011;11238;48.730;11.566;2023-05-10T12:00:58;3.45;;;1.10;;
22144;SDS011;11238;48.730;11.566;2023-05-10T12:03:25;3.97;;;1.17;;
22144;SDS011;11238;48.730;11.566;2023-05-10T12:05:51;0.95;;;0.90;;
22144;SDS011;11238;48.730;11.566;2023-05-10T12:08:20;4.18;;;1.00;;
22144;SDS011;11238;48.730;11.566;2023-05-10T12:10:50;1.75;;;1.27;;
22144;SDS011;11238;48.730;11.566;2023-05-10T12:13:18;3.08;;;1.27;;
22144;SDS011;11238;48.730;11.566;2023-05-10T12:15:45;2.97;;;1.48;;
22144;SDS011;11238;48.730;11.566;2023-05-10T12:18:12;2.13;;;1.33;;
22144;SDS011;11238;48.730;11.566;2023-05-10T12:20:39;3.97;;;1.38;;
22144;SDS011;11238;48.730;11.566;2023-05-10T12:23:07;2.17;;;1.33;;
22144;SDS011;11238;48.730;11.566;2023-05-10T12:25:35;4.00;;;1.52;;
22144;SDS011;11238;48.730;11.566;2023-05-10T12:28:03;1.50;;;1.40;;
22144;SDS011;11238;48.730;11.566;2023-05-10T12:30:32;3.78;;;1.45;;
22144;SDS011;11238;48.730;11.566;2023-05-10T12:33:00;1.60;;;1.20;;
22144;SDS011;11238;48.730;11.566;2023-05-10T12:35:31;1.80;;;1.17;;
22144;SDS011;11238;48.730;11.566;2023-05-10T12:37:57;2.47;;;1.20;;
22144;SDS011;11238;48.730;11.566;2023-05-10T12:40:23;3.60;;;1.30;;
22144;SDS011;11238;48.730;11.566;2023-05-10T12:42:49;2.10;;;1.30;;
22144;SDS011;11238;48.730;11.566;2023-05-10T12:45:16;3.15;;;1.30;;
22144;SDS011;11238;48.730;11.566;2023-05-10T12:47:43;2.40;;;1.50;;
22144;SDS011;11238;48.730;11.566;2023-05-10T12:50:09;1.90;;;1.60;;
22144;SDS011;11238;48.730;11.566;2023-05-10T12:52:35;4.32;;;1.63;;
22144;SDS011;11238;48.730;11.566;2023-05-10T12:55:01;2.28;;;1.50;;
22144;SDS011;11238;48.730;11.566;2023-05-10T12:57:28;3.58;;;1.67;;
22144;SDS011;11238;48.730;11.566;2023-05-10T12:59:54;6.18;;;1.45;;
22144;SDS011;11238;48.730;11.566;2023-05-10T13:02:20;5.00;;;1.70;;
22144;SDS011;11238;48.730;11.566;2023-05-10T13:04:48;3.50;;;1.60;;
22144;SDS011;11238;48.730;11.566;2023-05-10T13:07:14;1.92;;;1.60;;
22144;SDS011;11238;48.730;11.566;2023-05-10T13:09:40;1.67;;;1.30;;
22144;SDS011;11238;48.730;11.566;2023-05-10T13:12:06;1.67;;;1.40;;
22144;SDS011;11238;48.730;11.566;2023-05-10T13:14:32;3.55;;;1.50;;
22144;SDS011;11238;48.730;11.566;2023-05-10T13:16:58;1.50;;;1.40;;
22144;SDS011;11238;48.730;11.566;2023-05-10T13:19:25;3.75;;;1.70;;
22144;SDS011;11238;48.730;11.566;2023-05-10T13:21:52;2.95;;;1.40;;
22144;SDS011;11238;48.730;11.566;2023-05-10T13:24:18;4.80;;;1.88;;
22144;SDS011;11238;48.730;11.566;2023-05-10T13:26:44;3.10;;;1.42;;
22144;SDS011;11238;48.730;11.566;2023-05-10T13:29:10;3.45;;;1.90;;
22144;SDS011;11238;48.730;11.566;2023-05-10T13:31:36;4.38;;;1.50;;
22144;SDS011;11238;48.730;11.566;2023-05-10T13:34:02;3.88;;;1.40;;
22144;SDS011;11238;48.730;11.566;2023-05-10T13:36:28;1.30;;;1.00;;
22144;SDS011;11238;48.730;11.566;2023-05-10T13:38:54;1.25;;;0.73;;
22144;SDS011;11238;48.730;11.566;2023-05-10T13:41:20;1.95;;;0.98;;
22144;SDS011;11238;48.730;11.566;2023-05-10T13:43:46;2.28;;;0.93;;
22144;SDS011;11238;48.730;11.566;2023-05-10T13:46:13;7.88;;;1.40;;
22144;SDS011;11238;48.730;11.566;2023-05-10T13:48:39;4.18;;;1.50;;
22144;SDS011;11238;48.730;11.566;2023-05-10T13:51:05;4.85;;;1.77;;
22144;SDS011;11238;48.730;11.566;2023-05-10T13:53:31;2.95;;;1.70;;
22144;SDS011;11238;48.730;11.566;2023-05-10T13:55:57;6.35;;;1.55;;
22144;SDS011;11238;48.730;11.566;2023-05-10T13:58:23;3.47;;;1.40;;
22144;SDS011;11238;48.730;11.566;2023-05-10T14:00:49;4.32;;;1.48;;
22144;SDS011;11238;48.730;11.566;2023-05-10T14:03:15;6.05;;;1.60;;
22144;SDS011;11238;48.730;11.566;2023-05-10T14:05:40;3.53;;;1.38;;
22144;SDS011;11238;48.730;11.566;2023-05-10T14:08:06;2.03;;;1.13;;
22144;SDS011;11238;48.730;11.566;2023-05-10T14:10:32;4.07;;;1.60;;
22144;SDS011;11238;48.730;11.566;2023-05-10T14:12:58;2.38;;;1.23;;
22144;SDS011;11238;48.730;11.566;2023-05-10T14:15:24;1.50;;;0.90;;
22144;SDS011;11238;48.730;11.566;2023-05-10T14:17:49;1.77;;;1.00;;
22144;SDS011;11238;48.730;11.566;2023-05-10T14:20:15;2.08;;;1.00;;
22144;SDS011;11238;48.730;11.566;2023-05-10T14:22:41;0.80;;;0.80;;
22144;SDS011;11238;48.730;11.566;2023-05-10T14:25:07;1.80;;;1.00;;
22144;SDS011;11238;48.730;11.566;2023-05-10T14:27:33;1.48;;;0.93;;
22144;SDS011;11238;48.730;11.566;2023-05-10T14:29:59;1.13;;;1.02;;
22144;SDS011;11238;48.730;11.566;2023-05-10T14:32:24;1.48;;;1.10;;
22144;SDS011;11238;48.730;11.566;2023-05-10T14:34:51;5.18;;;1.67;;
22144;SDS011;11238;48.730;11.566;2023-05-10T14:37:17;3.92;;;1.85;;
22144;SDS011;11238;48.730;11.566;2023-05-10T14:39:43;5.88;;;2.53;;
22144;SDS011;11238;48.730;11.566;2023-05-10T14:42:08;4.30;;;1.50;;
22144;SDS011;11238;48.730;11.566;2023-05-10T14:44:34;2.80;;;1.20;;
22144;SDS011;11238;48.730;11.566;2023-05-10T14:47:00;2.20;;;1.30;;
22144;SDS011;11238;48.730;11.566;2023-05-10T14:49:26;4.88;;;1.60;;
22144;SDS011;11238;48.730;11.566;2023-05-10T14:51:52;3.42;;;1.33;;
22144;SDS011;11238;48.730;11.566;2023-05-10T14:54:18;1.98;;;1.50;;
22144;SDS011;11238;48.730;11.566;2023-05-10T14:56:43;8.57;;;3.35;;
22144;SDS011;11238;48.730;11.566;2023-05-10T14:59:09;6.90;;;2.00;;
22144;SDS011;11238;48.730;11.566;2023-05-10T15:01:35;5.07;;;1.67;;
22144;SDS011;11238;48.730;11.566;2023-05-10T15:04:03;4.15;;;1.48;;
22144;SDS011;11238;48.730;11.566;2023-05-10T15:06:33;5.65;;;2.00;;
22144;SDS011;11238;48.730;11.566;2023-05-10T15:09:00;3.03;;;1.80;;
22144;SDS011;11238;48.730;11.566;2023-05-10T15:11:28;5.43;;;2.30;;
22144;SDS011;11238;48.730;11.566;2023-05-10T15:13:54;2.67;;;1.40;;
22144;SDS011;11238;48.730;11.566;2023-05-10T15:16:20;8.40;;;2.80;;
22144;SDS011;11238;48.730;11.566;2023-05-10T15:18:46;4.22;;;2.20;;
22144;SDS011;11238;48.730;11.566;2023-05-10T15:21:13;6.30;;;2.53;;